首页
METAR-TAF:

METAR-TAF

机场 :

斯图加特机场

斯图加特, 德国

纬度: 48-41N, 经度: 009-13E, 海拔: 396米

当前天气观测

该预报发布于34分钟前的01:20 UTC
风速2节,风向多变
温度 1°C
湿度 100%
气压 1010 hPa
能見度: 8000

METAR: EDDS 170120Z VRB02KT 8000 NSC 01/01 Q1010

时间: 02:54 (01:54 UTC)

预报

该预报发布于2小时和54分钟前的23:00 UTC
预报有效从17日的 00点(UTC)到 17日的 24点(UTC)
风速3节,风向多变
能見度: 7000
几率 40% :
短暂存在
从 17日的 00点(UTC)到 17日的 10点(UTC)
能見度: 3000
轻雾
几率 30% :
短暂存在
从 17日的 01点(UTC)到 17日的 09点(UTC)
能見度: 0400
阴天层高于100英尺
成为
从 17日的 04点(UTC)到 17日的 07点(UTC)
风速6节,风向
成为
从 17日的 07点(UTC)到 17日的 09点(UTC)
多云层高于700英尺
几率 30% :
短暂存在
从 17日的 08点(UTC)到 17日的 13点(UTC)
能見度: 2500
多云层高于400英尺
雨, 轻雾
成为
从 17日的 16点(UTC)到 17日的 18点(UTC)
风速5节,风向西转西南
成为
从 17日的 20点(UTC)到 17日的 23点(UTC)
多云层高于1500英尺

TAF: EDDS 162300Z 1700/1724 VRB03KT 7000 NSC PROB40 TEMPO 1700/1710 3000 BR PROB30 TEMPO 1701/1709 0400 FG OVC001 BECMG 1704/1707 35006KT BECMG 1707/1709 BKN007 PROB30 TEMPO 1708/1713 2500 RA BR BKN004 BECMG 1716/1718 24005KT BECMG 1720/1723 BKN015

超过4000个机场的气象观测和天气预报(METAR&TAF报告)。

可查询的气象台以黄色和红色小点在地图上表示。

将鼠标移到小点上方,可查看气象台名称。

然后点击查看天气观测和预报。

如需切换地图:点击带黑十字的绿色按钮放大地图;点击带横线的绿色按钮缩小地图;或者点击绿色箭头查看邻近地区的地图。


METAR-TAF: